Time;durP1;ratioP1;P1;durP2;ratioP2;P2;SDS_P1;SDS_P2;PMS_P1;PMS_P2;Temp;Humidity;BMP_temperature;BMP_pressure;BME280_temperature;BME280_humidity;BME280_pressure;Samples;Min_cycle;Max_cycle;Signal;HPM_P1;HPM_P2
2022/05/18 00:01:22;;;;;;;4.60;3.25;;;;;24.30;101727.00;;;;5083956;28;20558;-76
2022/05/18 00:03:49;;;;;;;6.95;3.25;;;;;24.20;101732.00;;;;5082045;28;20215;-76
2022/05/18 00:06:16;;;;;;;4.88;4.00;;;;;24.20;101729.00;;;;5081242;28;20675;-76
2022/05/18 00:08:44;;;;;;;5.38;3.95;;;;;24.10;101729.00;;;;5076473;28;20198;-76
2022/05/18 00:11:15;;;;;;;6.13;3.05;;;;;24.00;101728.00;;;;5081518;28;20202;-76
2022/05/18 00:13:44;;;;;;;4.47;3.00;;;;;24.00;101735.00;;;;5077336;28;20202;-76
2022/05/18 00:16:11;;;;;;;7.30;3.28;;;;;24.00;101740.00;;;;5080866;28;20866;-76
2022/05/18 00:18:39;;;;;;;5.90;3.10;;;;;24.00;101740.00;;;;5079233;28;20195;-76
2022/05/18 00:21:07;;;;;;;4.38;3.00;;;;;23.90;101732.00;;;;5072946;28;20199;-76
2022/05/18 00:23:35;;;;;;;5.38;3.53;;;;;23.90;101735.00;;;;5075153;28;20233;-76
2022/05/18 00:26:04;;;;;;;5.93;3.88;;;;;23.80;101740.00;;;;5086470;28;20243;-76
2022/05/18 00:28:36;;;;;;;5.63;4.00;;;;;23.80;101734.00;;;;5085658;28;20215;-76
2022/05/18 00:31:04;;;;;;;4.45;3.50;;;;;23.80;101738.00;;;;5072415;28;20187;-76
2022/05/18 00:33:32;;;;;;;4.80;3.17;;;;;23.70;101745.00;;;;5077627;28;20198;-76
2022/05/18 00:36:00;;;;;;;6.53;3.63;;;;;23.70;101740.00;;;;5091545;28;20214;-76
2022/05/18 00:38:27;;;;;;;7.03;3.90;;;;;23.70;101737.00;;;;5087745;28;20202;-76
2022/05/18 00:40:55;;;;;;;6.22;3.70;;;;;23.60;101735.00;;;;5088597;28;20226;-76
2022/05/18 00:43:40;;;;;;;5.70;4.25;;;;;23.50;101743.00;;;;5089351;28;20226;-76
2022/05/18 00:46:09;;;;;;;5.35;3.78;;;;;23.50;101743.00;;;;5090071;28;20197;-76
2022/05/18 00:48:38;;;;;;;4.88;3.35;;;;;23.50;101744.00;;;;5089922;28;20194;-76
2022/05/18 00:51:09;;;;;;;5.93;4.10;;;;;23.50;101751.00;;;;5087934;28;20297;-76
2022/05/18 00:53:42;;;;;;;5.85;3.78;;;;;23.40;101756.00;;;;5081847;28;20198;-76
2022/05/18 00:56:14;;;;;;;7.57;4.07;;;;;23.40;101749.00;;;;5088427;28;20191;-76
2022/05/18 00:58:48;;;;;;;8.05;4.47;;;;;23.30;101754.00;;;;5089342;28;20198;-76
2022/05/18 01:01:17;;;;;;;6.10;4.07;;;;;23.30;101750.00;;;;5085863;28;20198;-76
2022/05/18 01:03:47;;;;;;;7.18;4.55;;;;;23.30;101747.00;;;;5078582;28;20222;-76
2022/05/18 01:06:21;;;;;;;5.43;3.95;;;;;23.20;101752.00;;;;5075569;28;20199;-76
2022/05/18 01:08:53;;;;;;;6.22;3.95;;;;;23.20;101749.00;;;;5081173;28;20197;-76
2022/05/18 01:11:21;;;;;;;9.27;4.82;;;;;23.20;101743.00;;;;5084838;28;20319;-76
2022/05/18 01:13:50;;;;;;;4.90;4.07;;;;;23.20;101751.00;;;;5089870;28;20207;-76
2022/05/18 01:16:19;;;;;;;5.95;3.78;;;;;23.20;101747.00;;;;5089049;28;20199;-76
2022/05/18 01:18:47;;;;;;;7.55;4.18;;;;;23.10;101744.00;;;;5087908;28;20206;-76
2022/05/18 01:21:15;;;;;;;7.40;4.65;;;;;23.10;101746.00;;;;5084613;28;20255;-76
2022/05/18 01:23:52;;;;;;;5.13;4.20;;;;;23.00;101746.00;;;;5088368;28;20229;-76
2022/05/18 01:26:35;;;;;;;6.53;4.40;;;;;23.00;101750.00;;;;5086624;28;20204;-76
2022/05/18 01:29:05;;;;;;;5.93;3.90;;;;;23.00;101751.00;;;;5077570;28;20199;-76
2022/05/18 01:31:48;;;;;;;6.00;4.03;;;;;22.90;101752.00;;;;5086851;28;20679;-76
2022/05/18 01:34:18;;;;;;;5.47;4.18;;;;;23.00;101743.00;;;;5084377;28;20208;-76
2022/05/18 01:36:46;;;;;;;5.68;4.10;;;;;22.90;101744.00;;;;5079500;28;20199;-76
2022/05/18 01:39:16;;;;;;;5.85;4.15;;;;;22.90;101748.00;;;;5073849;28;20206;-76
2022/05/18 01:41:53;;;;;;;6.45;4.57;;;;;22.80;101745.00;;;;5085753;28;20209;-77
2022/05/18 01:44:21;;;;;;;7.07;4.15;;;;;22.90;101743.00;;;;5084194;28;20202;-77
2022/05/18 01:46:48;;;;;;;7.63;5.00;;;;;22.90;101743.00;;;;5078573;28;20194;-76
2022/05/18 01:49:16;;;;;;;7.05;4.90;;;;;22.80;101741.00;;;;5089401;28;20198;-76
2022/05/18 01:51:45;;;;;;;5.88;4.70;;;;;22.80;101746.00;;;;5076466;28;20293;-76
2022/05/18 01:54:13;;;;;;;5.40;3.97;;;;;22.80;101741.00;;;;5083523;28;20707;-76
2022/05/18 01:56:40;;;;;;;7.82;4.22;;;;;22.80;101742.00;;;;5083776;28;20201;-76
2022/05/18 01:59:09;;;;;;;7.85;4.15;;;;;22.80;101744.00;;;;5072356;28;20195;-76
2022/05/18 02:01:37;;;;;;;6.78;4.15;;;;;22.80;101744.00;;;;5070261;28;20723;-76
2022/05/18 02:04:05;;;;;;;5.40;4.25;;;;;22.80;101741.00;;;;5087479;28;20253;-76
2022/05/18 02:06:33;;;;;;;6.57;4.47;;;;;22.70;101737.00;;;;5087091;28;20190;-76
2022/05/18 02:09:01;;;;;;;6.43;5.13;;;;;22.70;101739.00;;;;5078461;28;20202;-76
2022/05/18 02:11:28;;;;;;;7.65;5.05;;;;;22.70;101733.00;;;;5086656;28;20205;-76
2022/05/18 02:13:56;;;;;;;5.85;4.60;;;;;22.70;101735.00;;;;5087209;28;20212;-76
2022/05/18 02:16:24;;;;;;;5.40;4.40;;;;;22.70;101732.00;;;;5072568;28;20203;-76
2022/05/18 02:18:51;;;;;;;7.55;4.80;;;;;22.70;101726.00;;;;5086289;28;20198;-76
2022/05/18 02:21:19;;;;;;;7.30;4.47;;;;;22.70;101730.00;;;;5087465;28;20190;-77
2022/05/18 02:23:46;;;;;;;5.20;4.57;;;;;22.70;101734.00;;;;5085742;28;20222;-76
2022/05/18 02:26:15;;;;;;;8.48;4.70;;;;;22.70;101727.00;;;;5084873;28;20194;-76
2022/05/18 02:28:44;;;;;;;6.63;5.35;;;;;22.60;101717.00;;;;5085232;28;20209;-77
2022/05/18 02:31:11;;;;;;;5.70;4.63;;;;;22.60;101715.00;;;;5087343;28;20241;-77
2022/05/18 02:33:41;;;;;;;7.88;4.75;;;;;22.60;101721.00;;;;5083827;28;20194;-77
2022/05/18 02:36:10;;;;;;;6.95;5.18;;;;;22.60;101718.00;;;;5084027;28;20653;-77
2022/05/18 02:38:39;;;;;;;6.57;4.35;;;;;22.60;101726.00;;;;5084748;28;20634;-76
2022/05/18 02:41:06;;;;;;;6.72;5.22;;;;;22.60;101725.00;;;;5084319;28;20246;-76
2022/05/18 02:43:37;;;;;;;6.03;4.35;;;;;22.60;101719.00;;;;5083387;28;20229;-76
2022/05/18 02:46:07;;;;;;;7.88;5.00;;;;;22.60;101715.00;;;;5087446;28;20304;-76
2022/05/18 02:48:34;;;;;;;5.45;4.53;;;;;22.60;101715.00;;;;5079695;28;20206;-77
2022/05/18 02:51:04;;;;;;;10.18;5.20;;;;;22.60;101720.00;;;;5088582;28;20197;-76
2022/05/18 02:53:31;;;;;;;6.05;5.03;;;;;22.60;101716.00;;;;5085371;28;20202;-76
2022/05/18 02:56:06;;;;;;;7.78;5.32;;;;;22.60;101718.00;;;;5079509;28;20203;-77
2022/05/18 02:58:36;;;;;;;5.82;5.18;;;;;22.60;101719.00;;;;5083644;28;20194;-77
2022/05/18 03:01:05;;;;;;;7.20;5.60;;;;;22.60;101719.00;;;;5082592;28;20288;-77
2022/05/18 03:03:33;;;;;;;6.38;4.68;;;;;22.60;101718.00;;;;5087893;28;20229;-77
2022/05/18 03:06:00;;;;;;;9.57;5.03;;;;;22.60;101719.00;;;;5083427;28;20198;-77
2022/05/18 03:08:29;;;;;;;6.45;4.68;;;;;22.60;101716.00;;;;5075423;28;20193;-77
2022/05/18 03:10:56;;;;;;;6.53;5.70;;;;;22.60;101727.00;;;;5080655;28;20310;-77
2022/05/18 03:13:24;;;;;;;7.85;5.10;;;;;22.60;101724.00;;;;5069061;28;20668;-77
2022/05/18 03:15:51;;;;;;;6.40;5.15;;;;;22.60;101729.00;;;;5088083;28;20198;-77
2022/05/18 03:18:18;;;;;;;8.23;5.70;;;;;22.60;101730.00;;;;5078941;28;20257;-77
2022/05/18 03:23:34;;;;;;;6.57;4.63;;;;;22.60;101734.00;;;;5080512;28;20260;-76
2022/05/18 03:26:02;;;;;;;7.88;5.28;;;;;22.60;101743.00;;;;5084338;28;20209;-76
2022/05/18 03:28:29;;;;;;;7.55;5.18;;;;;22.60;101741.00;;;;5084042;28;20264;-76
2022/05/18 03:30:57;;;;;;;6.90;4.38;;;;;22.60;101749.00;;;;5068754;28;20201;-76
2022/05/18 03:33:24;;;;;;;5.35;4.85;;;;;22.60;101752.00;;;;5084131;28;20214;-76
2022/05/18 03:35:52;;;;;;;7.47;5.03;;;;;22.60;101750.00;;;;5079064;28;20213;-76
2022/05/18 03:38:20;;;;;;;5.82;5.13;;;;;22.60;101748.00;;;;5076264;28;20251;-77
2022/05/18 03:40:50;;;;;;;6.55;5.35;;;;;22.60;101748.00;;;;5077743;28;20233;-76
2022/05/18 03:43:17;;;;;;;6.28;4.60;;;;;22.60;101757.00;;;;5086767;28;20644;-76
2022/05/18 03:45:45;;;;;;;9.50;5.07;;;;;22.60;101759.00;;;;5088461;28;20202;-76
2022/05/18 03:48:13;;;;;;;7.13;5.05;;;;;22.60;101758.00;;;;5074802;28;21134;-76
2022/05/18 03:50:42;;;;;;;8.23;4.93;;;;;22.60;101757.00;;;;5084284;28;20199;-76
2022/05/18 03:53:11;;;;;;;6.03;4.68;;;;;22.60;101754.00;;;;5083668;28;20194;-76
2022/05/18 03:55:39;;;;;;;6.72;5.30;;;;;22.60;101763.00;;;;5087816;28;20210;-76
2022/05/18 03:58:09;;;;;;;7.25;4.65;;;;;22.60;101759.00;;;;5082190;28;20199;-76
2022/05/18 04:00:38;;;;;;;7.72;4.65;;;;;22.70;101756.00;;;;5083316;28;20206;-76
2022/05/18 04:03:06;;;;;;;6.63;4.60;;;;;22.70;101755.00;;;;5078192;28;20231;-75
2022/05/18 04:05:33;;;;;;;6.68;5.63;;;;;22.70;101761.00;;;;5087793;28;20674;-75
2022/05/18 04:08:01;;;;;;;6.05;4.70;;;;;22.70;101758.00;;;;5085720;28;20198;-76
2022/05/18 04:10:28;;;;;;;7.80;5.53;;;;;22.70;101758.00;;;;5079713;28;20289;-76
2022/05/18 04:12:55;;;;;;;6.85;5.00;;;;;22.70;101761.00;;;;5087556;28;20583;-76
2022/05/18 04:15:24;;;;;;;5.25;4.72;;;;;22.70;101759.00;;;;5088715;28;20194;-76
2022/05/18 04:17:51;;;;;;;7.22;5.22;;;;;22.70;101758.00;;;;5086234;28;20195;-76
2022/05/18 04:20:22;;;;;;;5.75;4.45;;;;;22.70;101757.00;;;;5074445;28;20284;-76
2022/05/18 04:22:50;;;;;;;5.55;5.05;;;;;22.70;101759.00;;;;5083367;28;20202;-76
2022/05/18 04:25:21;;;;;;;6.15;5.15;;;;;22.70;101758.00;;;;5090243;28;20202;-76
2022/05/18 04:27:49;;;;;;;7.75;5.70;;;;;22.70;101766.00;;;;5073109;28;20256;-76
2022/05/18 04:30:16;;;;;;;8.25;4.88;;;;;22.80;101769.00;;;;5070049;28;20199;-76
2022/05/18 04:32:46;;;;;;;5.45;4.68;;;;;22.70;101778.00;;;;5070765;28;20778;-77
2022/05/18 04:35:16;;;;;;;5.80;5.10;;;;;22.80;101773.00;;;;5076697;28;20560;-76
2022/05/18 04:37:43;;;;;;;7.57;5.55;;;;;22.80;101773.00;;;;5088033;28;20269;-76
2022/05/18 04:40:11;;;;;;;7.68;5.57;;;;;22.80;101778.00;;;;5087761;28;20221;-77
2022/05/18 04:42:39;;;;;;;7.70;5.05;;;;;22.80;101786.00;;;;5089043;28;20201;-76
2022/05/18 04:45:09;;;;;;;10.73;4.85;;;;;22.80;101782.00;;;;5083333;28;20229;-76
2022/05/18 04:47:37;;;;;;;6.78;4.82;;;;;22.80;101790.00;;;;5086657;28;20206;-77
2022/05/18 04:50:07;;;;;;;6.22;4.97;;;;;22.80;101784.00;;;;5079206;28;20205;-76
2022/05/18 04:52:34;;;;;;;5.22;4.72;;;;;22.90;101790.00;;;;5083234;28;20579;-76
2022/05/18 04:55:01;;;;;;;8.52;5.00;;;;;22.90;101788.00;;;;5089410;28;20229;-76
2022/05/18 04:57:29;;;;;;;7.22;5.07;;;;;22.90;101786.00;;;;5091362;28;20207;-76
2022/05/18 04:59:56;;;;;;;6.50;5.72;;;;;23.00;101791.00;;;;5088755;28;20198;-77
2022/05/18 05:02:23;;;;;;;9.68;5.65;;;;;23.00;101804.00;;;;5085654;28;20198;-76
2022/05/18 05:04:50;;;;;;;6.35;5.47;;;;;23.10;101805.00;;;;5077452;28;20874;-76
2022/05/18 05:07:19;;;;;;;8.00;5.50;;;;;23.10;101804.00;;;;5071205;28;20201;-77
2022/05/18 05:09:46;;;;;;;5.72;4.93;;;;;23.20;101802.00;;;;5071736;28;20202;-76
2022/05/18 05:12:13;;;;;;;6.45;5.25;;;;;23.20;101809.00;;;;5070754;28;20199;-77
2022/05/18 05:14:41;;;;;;;10.32;6.15;;;;;23.30;101810.00;;;;5086805;28;20205;-77
2022/05/18 05:17:09;;;;;;;5.50;5.00;;;;;23.30;101810.00;;;;5087405;28;20256;-77
2022/05/18 05:19:37;;;;;;;6.57;5.00;;;;;23.40;101812.00;;;;5087078;28;20202;-77
2022/05/18 05:22:05;;;;;;;6.70;5.35;;;;;23.50;101810.00;;;;5087612;28;20195;-78
2022/05/18 05:24:35;;;;;;;6.32;4.68;;;;;23.50;101815.00;;;;5090536;28;20222;-77
2022/05/18 05:27:02;;;;;;;6.63;4.82;;;;;23.60;101823.00;;;;5089521;28;20290;-77
2022/05/18 05:29:29;;;;;;;7.03;4.97;;;;;23.70;101829.00;;;;5089993;28;20202;-78
2022/05/18 05:31:56;;;;;;;6.15;5.38;;;;;23.80;101835.00;;;;5081631;28;20260;-78
2022/05/18 05:34:24;;;;;;;8.73;5.45;;;;;23.80;101834.00;;;;5084484;28;20273;-78
2022/05/18 05:36:51;;;;;;;9.57;5.63;;;;;23.90;101837.00;;;;5083157;28;20191;-77
2022/05/18 05:39:20;;;;;;;9.25;6.45;;;;;23.90;101832.00;;;;5074739;28;20923;-77
2022/05/18 05:41:49;;;;;;;7.05;5.68;;;;;23.90;101832.00;;;;5087344;28;20205;-78
2022/05/18 05:44:16;;;;;;;8.88;6.53;;;;;24.00;101837.00;;;;5070503;28;20223;-78
2022/05/18 05:46:45;;;;;;;6.22;5.38;;;;;24.00;101837.00;;;;5073732;28;20194;-78
2022/05/18 05:49:12;;;;;;;5.95;5.45;;;;;24.10;101836.00;;;;5074732;28;20577;-76
2022/05/18 05:51:39;;;;;;;7.05;5.95;;;;;24.10;101842.00;;;;5088770;28;20204;-79
2022/05/18 05:54:08;;;;;;;6.97;5.82;;;;;24.10;101843.00;;;;5088538;28;20222;-78
2022/05/18 05:56:35;;;;;;;7.53;6.35;;;;;24.20;101838.00;;;;5070701;28;20195;-79
2022/05/18 05:59:03;;;;;;;6.50;5.85;;;;;24.20;101842.00;;;;5090657;28;20213;-77
2022/05/18 06:01:31;;;;;;;7.82;5.72;;;;;24.20;101838.00;;;;5084186;28;20210;-77
2022/05/18 06:03:58;;;;;;;7.03;6.28;;;;;24.30;101836.00;;;;5088798;28;20225;-76
2022/05/18 06:06:25;;;;;;;10.23;5.80;;;;;24.30;101835.00;;;;5089551;28;20194;-77
2022/05/18 06:08:52;;;;;;;8.25;5.82;;;;;24.30;101832.00;;;;5088995;28;20190;-77
2022/05/18 06:11:19;;;;;;;6.95;6.25;;;;;24.40;101834.00;;;;5089923;28;20209;-77
2022/05/18 06:13:47;;;;;;;7.47;6.65;;;;;24.40;101839.00;;;;5088791;28;20210;-75
2022/05/18 06:16:15;;;;;;;10.10;6.25;;;;;24.40;101847.00;;;;5089135;28;20296;-75
2022/05/18 06:18:42;;;;;;;6.85;6.03;;;;;24.40;101852.00;;;;5089196;28;20205;-75
2022/05/18 06:21:10;;;;;;;6.95;6.07;;;;;24.50;101853.00;;;;5089059;28;20813;-75
2022/05/18 06:23:37;;;;;;;8.13;6.95;;;;;24.50;101859.00;;;;5089124;28;20222;-75
2022/05/18 06:26:06;;;;;;;8.32;7.43;;;;;24.50;101856.00;;;;5089086;28;20233;-75
2022/05/18 06:28:36;;;;;;;9.13;6.57;;;;;24.60;101857.00;;;;5089511;28;20202;-75
2022/05/18 06:31:03;;;;;;;9.88;6.68;;;;;24.60;101862.00;;;;5088995;28;20294;-75
2022/05/18 06:33:32;;;;;;;7.53;6.65;;;;;24.60;101865.00;;;;5069680;28;20223;-75
2022/05/18 06:35:59;;;;;;;10.43;7.55;;;;;24.70;101862.00;;;;5069199;28;20209;-75
2022/05/18 06:38:27;;;;;;;9.35;7.10;;;;;24.70;101859.00;;;;5069158;28;20191;-75
2022/05/18 06:43:44;;;;;;;8.45;7.63;;;;;24.80;101870.00;;;;5072729;28;20233;-75
2022/05/18 06:46:11;;;;;;;9.05;7.72;;;;;24.80;101864.00;;;;5088684;28;20202;-76
2022/05/18 06:48:41;;;;;;;8.60;7.30;;;;;24.80;101877.00;;;;5076898;28;20195;-76
2022/05/18 06:51:09;;;;;;;9.13;7.88;;;;;24.90;101880.00;;;;5087099;28;20285;-75
2022/05/18 06:53:38;;;;;;;9.40;8.07;;;;;25.00;101885.00;;;;5086675;28;20198;-75
2022/05/18 06:56:05;;;;;;;10.63;7.80;;;;;25.00;101883.00;;;;5076907;28;20203;-75
2022/05/18 06:58:33;;;;;;;9.20;8.25;;;;;25.10;101891.00;;;;5087582;28;20209;-76
2022/05/18 07:01:01;;;;;;;8.98;7.97;;;;;25.10;101894.00;;;;5083275;28;20209;-76
2022/05/18 07:03:28;;;;;;;12.13;8.10;;;;;25.20;101898.00;;;;5087987;28;20285;-76
2022/05/18 07:05:57;;;;;;;12.25;8.55;;;;;25.20;101896.00;;;;5084203;28;20194;-76
2022/05/18 07:08:24;;;;;;;9.95;8.07;;;;;25.30;101905.00;;;;5084302;28;20202;-76
2022/05/18 07:10:52;;;;;;;11.00;9.13;;;;;25.40;101908.00;;;;5088996;28;20200;-76
2022/05/18 07:13:19;;;;;;;12.40;8.93;;;;;25.50;101916.00;;;;5088495;28;20548;-76
2022/05/18 07:15:47;;;;;;;9.27;8.38;;;;;25.60;101922.00;;;;5084664;28;20210;-76
2022/05/18 07:18:15;;;;;;;10.32;8.63;;;;;25.70;101916.00;;;;5085693;28;20202;-76
2022/05/18 07:20:43;;;;;;;12.18;8.75;;;;;25.80;101916.00;;;;5074104;28;20626;-76
2022/05/18 07:23:13;;;;;;;10.75;8.75;;;;;25.90;101916.00;;;;5068148;28;20272;-76
2022/05/18 07:25:40;;;;;;;9.15;8.10;;;;;26.00;101920.00;;;;5075881;28;20230;-76
2022/05/18 07:28:09;;;;;;;16.20;9.15;;;;;26.20;101915.00;;;;5085396;28;20629;-76
2022/05/18 07:30:37;;;;;;;11.10;8.70;;;;;26.30;101925.00;;;;5085287;28;20202;-76
2022/05/18 07:33:04;;;;;;;12.80;8.88;;;;;26.40;101918.00;;;;5083651;28;20286;-76
2022/05/18 07:35:31;;;;;;;10.93;8.65;;;;;26.50;101920.00;;;;5078148;28;20198;-76
2022/05/18 07:37:59;;;;;;;16.15;9.63;;;;;26.70;101922.00;;;;5086607;28;20208;-76
2022/05/18 07:40:28;;;;;;;16.90;9.23;;;;;26.80;101925.00;;;;5080697;28;20230;-77
2022/05/18 07:42:56;;;;;;;12.57;8.25;;;;;27.00;101925.00;;;;5086574;28;20688;-77
2022/05/18 07:45:25;;;;;;;8.25;7.45;;;;;27.10;101928.00;;;;5077092;28;20302;-76
2022/05/18 07:47:53;;;;;;;11.95;8.27;;;;;27.20;101932.00;;;;5089794;28;20199;-76
2022/05/18 07:50:20;;;;;;;11.50;8.35;;;;;27.30;101934.00;;;;5088140;28;20282;-76
2022/05/18 07:52:48;;;;;;;10.32;8.05;;;;;27.40;101934.00;;;;5085445;28;20212;-76
2022/05/18 07:55:15;;;;;;;8.68;7.28;;;;;27.50;101932.00;;;;5077371;28;20218;-76
2022/05/18 07:57:44;;;;;;;8.63;7.72;;;;;27.50;101933.00;;;;5090104;28;20194;-76
2022/05/18 08:00:15;;;;;;;11.10;7.18;;;;;27.60;101940.00;;;;5087488;28;20572;-76
2022/05/18 08:02:42;;;;;;;7.28;6.20;;;;;27.80;101945.00;;;;5090130;28;20194;-77
2022/05/18 08:05:10;;;;;;;10.10;7.05;;;;;27.90;101941.00;;;;5090695;28;20233;-76
2022/05/18 08:07:39;;;;;;;8.05;6.45;;;;;28.10;101952.00;;;;5090760;28;20298;-78
2022/05/18 08:15:42;;;;;;;6.53;5.65;;;;;28.50;101946.00;;;;5086867;28;20251;-78
2022/05/18 08:18:09;;;;;;;7.03;5.55;;;;;28.60;101942.00;;;;5086313;28;20191;-77
2022/05/18 08:20:40;;;;;;;6.13;5.35;;;;;28.80;101948.00;;;;5070319;28;20651;-77
2022/05/18 08:23:08;;;;;;;7.97;5.90;;;;;28.90;101945.00;;;;5081151;28;20751;-77
2022/05/18 08:25:36;;;;;;;7.00;5.50;;;;;29.00;101962.00;;;;5090716;28;20221;-77
2022/05/18 08:28:06;;;;;;;8.38;5.72;;;;;29.10;101966.00;;;;5088056;28;20198;-77
2022/05/18 08:30:33;;;;;;;5.97;5.13;;;;;29.20;101968.00;;;;5090182;28;20205;-79
2022/05/18 08:33:01;;;;;;;6.75;5.05;;;;;29.30;101965.00;;;;5089533;28;20209;-78
2022/05/18 08:35:30;;;;;;;4.90;4.35;;;;;29.30;101970.00;;;;5079056;28;20261;-78
2022/05/18 08:37:58;;;;;;;6.47;5.30;;;;;29.40;101964.00;;;;5068293;28;20198;-80
2022/05/18 08:40:39;;;;;;;6.38;5.03;;;;;29.40;101966.00;;;;5081871;28;20233;-79
2022/05/18 08:43:11;;;;;;;7.90;4.90;;;;;29.60;101964.00;;;;5091283;28;20199;-76
2022/05/18 08:45:43;;;;;;;6.18;4.78;;;;;29.70;101962.00;;;;5090950;28;20222;-76
2022/05/18 08:48:20;;;;;;;6.93;5.75;;;;;29.80;101962.00;;;;5073901;28;20191;-79
2022/05/18 08:50:48;;;;;;;7.18;5.25;;;;;30.00;101970.00;;;;5069639;28;20202;-78
2022/05/18 08:53:35;;;;;;;5.88;5.03;;;;;30.00;101964.00;;;;5071231;28;20256;-77
2022/05/18 08:56:09;;;;;;;5.43;4.85;;;;;30.20;101967.00;;;;5082890;28;20226;-77
2022/05/18 08:58:42;;;;;;;8.25;5.00;;;;;30.30;101963.00;;;;5088430;28;20194;-77
2022/05/18 09:01:15;;;;;;;4.88;4.15;;;;;30.40;101968.00;;;;5085571;28;20285;-77
2022/05/18 09:03:47;;;;;;;15.00;3.97;;;;;30.50;101968.00;;;;5086245;28;20195;-79
2022/05/18 09:06:24;;;;;;;4.18;3.22;;;;;30.60;101969.00;;;;5088231;28;20221;-78
2022/05/18 09:11:50;;;;;;;8.20;3.70;;;;;30.80;101975.00;;;;5088540;28;20210;-78
2022/05/18 09:14:21;;;;;;;4.88;3.40;;;;;30.90;101989.00;;;;5089318;28;20224;-78
2022/05/18 09:16:58;;;;;;;7.03;3.90;;;;;30.90;101988.00;;;;5089282;28;20202;-78
2022/05/18 09:19:35;;;;;;;5.28;3.55;;;;;30.90;101994.00;;;;5085272;28;20648;-78
2022/05/18 09:22:10;;;;;;;7.55;3.72;;;;;30.90;101995.00;;;;5086581;28;20201;-78
2022/05/18 09:24:49;;;;;;;4.88;3.40;;;;;30.90;101992.00;;;;5088033;28;20270;-79
2022/05/18 09:27:38;;;;;;;7.18;3.78;;;;;30.80;102001.00;;;;5086884;28;20190;-79
2022/05/18 09:30:15;;;;;;;4.95;3.50;;;;;30.90;101999.00;;;;5086966;28;20190;-78
2022/05/18 09:33:01;;;;;;;5.05;3.92;;;;;31.00;101996.00;;;;5090120;28;20217;-78
2022/05/18 09:35:42;;;;;;;8.02;3.78;;;;;31.10;101999.00;;;;5088919;28;20198;-78
2022/05/18 09:38:16;;;;;;;4.57;3.63;;;;;31.10;102002.00;;;;5088815;28;20638;-78
2022/05/18 09:40:47;;;;;;;4.28;3.20;;;;;31.10;102000.00;;;;5086571;28;20218;-78
2022/05/18 09:43:21;;;;;;;5.28;3.30;;;;;31.00;101996.00;;;;5086865;28;20194;-79
2022/05/18 09:45:51;;;;;;;5.43;3.25;;;;;31.00;101988.00;;;;5084489;28;20240;-78
2022/05/18 09:48:23;;;;;;;4.38;2.25;;;;;31.00;101990.00;;;;5076514;28;20692;-78
2022/05/18 09:50:52;;;;;;;4.30;3.30;;;;;31.10;101988.00;;;;5087547;28;20292;-79
2022/05/18 09:53:20;;;;;;;3.97;2.63;;;;;31.10;101985.00;;;;5086832;28;20214;-79
2022/05/18 09:55:50;;;;;;;4.28;3.08;;;;;31.20;101989.00;;;;5087144;28;20313;-79
2022/05/18 09:58:24;;;;;;;3.78;3.00;;;;;31.20;101998.00;;;;5088816;28;21527;-80
2022/05/18 10:07:27;;;;;;;3.63;3.00;;;;;31.30;102005.00;;;;5086707;28;20194;-79
2022/05/18 10:09:27;;;;;;;5.82;2.35;;;;;31.40;101999.00;;;;5087701;28;20676;-80
2022/05/18 10:11:54;;;;;;;4.65;2.60;;;;;31.40;102003.00;;;;5088838;28;20198;-79
2022/05/18 10:14:31;;;;;;;3.10;2.80;;;;;31.50;101997.00;;;;5088337;28;20196;-79
2022/05/18 10:17:05;;;;;;;5.78;3.42;;;;;31.60;101998.00;;;;5088162;28;20202;-79
2022/05/18 10:19:36;;;;;;;6.60;3.08;;;;;31.70;101996.00;;;;5083154;28;20207;-79
2022/05/18 10:22:06;;;;;;;5.25;3.58;;;;;31.80;101999.00;;;;5082182;28;20194;-79
2022/05/18 10:24:38;;;;;;;5.38;3.38;;;;;31.90;102005.00;;;;5080714;28;20210;-77
2022/05/18 10:27:19;;;;;;;4.60;3.45;;;;;32.00;102000.00;;;;5068960;28;21052;-77
2022/05/18 10:29:52;;;;;;;4.90;3.25;;;;;32.00;102001.00;;;;5069692;28;20218;-77
2022/05/18 10:32:27;;;;;;;6.50;3.80;;;;;32.10;101999.00;;;;5071195;28;20198;-77
2022/05/18 10:34:56;;;;;;;5.07;3.22;;;;;32.20;101998.00;;;;5088774;28;20196;-77
2022/05/18 10:37:29;;;;;;;3.90;3.25;;;;;32.20;101999.00;;;;5089246;28;20210;-77
2022/05/18 10:40:03;;;;;;;6.05;3.28;;;;;32.20;102001.00;;;;5088160;28;20234;-76
2022/05/18 10:42:33;;;;;;;6.72;4.78;;;;;32.20;102001.00;;;;5089285;28;20202;-76
2022/05/18 10:45:03;;;;;;;4.00;3.10;;;;;32.20;101996.00;;;;5084981;28;20275;-76
2022/05/18 10:47:36;;;;;;;3.33;3.03;;;;;32.10;102000.00;;;;5073272;28;20190;-77
2022/05/18 10:50:27;;;;;;;7.63;3.22;;;;;31.90;101996.00;;;;5087330;28;20252;-76
2022/05/18 10:52:58;;;;;;;4.68;2.90;;;;;32.00;101992.00;;;;5088625;28;20203;-76
2022/05/18 10:55:28;;;;;;;4.32;2.70;;;;;31.90;101991.00;;;;5085027;28;20210;-76
2022/05/18 10:57:58;;;;;;;4.35;3.20;;;;;31.90;101992.00;;;;5088626;28;20226;-77
2022/05/18 11:00:32;;;;;;;5.28;2.65;;;;;31.80;102000.00;;;;5086497;28;20194;-76
2022/05/18 11:03:11;;;;;;;3.85;2.08;;;;;31.80;101997.00;;;;5088344;28;20214;-77
2022/05/18 11:05:43;;;;;;;4.13;2.88;;;;;31.80;101999.00;;;;5087530;28;20695;-76
2022/05/18 11:08:14;;;;;;;4.25;2.40;;;;;31.90;101995.00;;;;5088922;28;20198;-77
2022/05/18 11:10:53;;;;;;;3.95;2.35;;;;;31.90;101996.00;;;;5088640;28;20195;-76
2022/05/18 11:13:32;;;;;;;3.97;1.90;;;;;32.00;101990.00;;;;5085517;28;20258;-76
2022/05/18 11:16:12;;;;;;;4.70;3.38;;;;;32.00;101997.00;;;;5075240;28;20210;-77
2022/05/18 11:18:45;;;;;;;3.20;2.90;;;;;32.00;101995.00;;;;5076381;28;20210;-77
2022/05/18 11:21:22;;;;;;;3.90;2.53;;;;;32.10;101997.00;;;;5084991;28;20202;-77
2022/05/18 11:23:58;;;;;;;6.72;3.03;;;;;32.10;101989.00;;;;5073933;28;20683;-77
2022/05/18 11:26:36;;;;;;;2.67;2.30;;;;;32.20;101994.00;;;;5068314;28;20772;-77
2022/05/18 11:29:12;;;;;;;7.47;3.08;;;;;32.30;101992.00;;;;5084657;28;20198;-77
2022/05/18 11:32:16;;;;;;;5.00;3.17;;;;;32.20;101984.00;;;;5077810;28;20198;-77
2022/05/18 11:34:58;;;;;;;2.97;2.40;;;;;32.30;101989.00;;;;5006232;28;20746;-77
2022/05/18 11:37:43;;;;;;;2.80;1.90;;;;;32.40;101987.00;;;;5006114;28;20243;-77
2022/05/18 11:40:18;;;;;;;3.90;2.10;;;;;32.50;101990.00;;;;5067306;28;20431;-77
2022/05/18 11:42:58;;;;;;;3.17;1.67;;;;;32.50;101994.00;;;;5088436;28;20568;-77
2022/05/18 11:45:36;;;;;;;1.73;1.10;;;;;32.50;101999.00;;;;5083544;28;20230;-77
2022/05/18 11:48:19;;;;;;;1.67;1.10;;;;;32.50;101992.00;;;;5085819;28;20198;-77
2022/05/18 11:50:56;;;;;;;1.75;0.90;;;;;32.60;101993.00;;;;5070683;28;20202;-76
2022/05/18 11:53:38;;;;;;;1.20;1.10;;;;;32.60;101989.00;;;;5069450;28;20316;-77
2022/05/18 11:56:20;;;;;;;1.45;0.88;;;;;32.60;101986.00;;;;5068939;28;20230;-77
2022/05/18 11:59:09;;;;;;;2.28;1.35;;;;;32.60;101993.00;;;;5078694;28;20198;-77
2022/05/18 12:01:43;;;;;;;1.92;1.20;;;;;32.50;101987.00;;;;5072398;28;20578;-77
2022/05/18 12:04:38;;;;;;;2.25;1.20;;;;;32.40;101997.00;;;;5079028;28;20202;-76
2022/05/18 12:07:34;;;;;;;8.88;1.63;;;;;32.30;102002.00;;;;5075014;28;20233;-76
2022/05/18 12:10:17;;;;;;;2.53;1.25;;;;;32.30;101999.00;;;;5087377;28;20198;-76
2022/05/18 12:12:53;;;;;;;2.35;1.55;;;;;32.30;101992.00;;;;5087183;28;20205;-77
2022/05/18 12:15:26;;;;;;;3.40;2.20;;;;;32.30;101999.00;;;;5087538;28;20221;-76
2022/05/18 12:17:59;;;;;;;3.80;1.60;;;;;32.30;101986.00;;;;5087743;28;21135;-77
2022/05/18 12:20:32;;;;;;;2.75;1.70;;;;;32.30;101987.00;;;;5087568;28;20567;-77
2022/05/18 12:23:03;;;;;;;2.92;2.17;;;;;32.30;101991.00;;;;5087693;28;20217;-77
2022/05/18 12:25:31;;;;;;;2.88;2.17;;;;;32.30;101998.00;;;;5085036;28;20221;-77
2022/05/18 12:28:02;;;;;;;3.83;2.67;;;;;32.30;101991.00;;;;5091311;28;20222;-78
2022/05/18 12:30:33;;;;;;;3.28;2.65;;;;;32.30;101995.00;;;;5083059;28;20191;-76
2022/05/18 12:33:02;;;;;;;2.75;1.95;;;;;32.40;101996.00;;;;5071720;28;20199;-77
2022/05/18 12:35:35;;;;;;;3.35;2.10;;;;;32.40;101998.00;;;;5071085;28;20681;-77
2022/05/18 12:38:12;;;;;;;3.25;2.17;;;;;32.30;101993.00;;;;5087594;28;20194;-76
2022/05/18 12:40:50;;;;;;;5.53;2.75;;;;;32.30;102001.00;;;;5091125;28;20235;-76
2022/05/18 12:43:24;;;;;;;9.52;2.83;;;;;32.40;101998.00;;;;5090623;28;20201;-77
2022/05/18 12:45:58;;;;;;;5.95;2.70;;;;;32.40;101996.00;;;;5082696;28;20225;-76